Time;durP1;ratioP1;P1;durP2;ratioP2;P2;SDS_P1;SDS_P2;PMS_P1;PMS_P2;Temp;Humidity;BMP_temperature;BMP_pressure;BME280_temperature;BME280_humidity;BME280_pressure;Samples;Min_cycle;Max_cycle;Signal;HPM_P1;HPM_P2
2023/02/14 00:01:12;;;;;;;4.73;2.60;;;4.10;99.90;;;;;;4998615;28;20181;-82
2023/02/14 00:03:39;;;;;;;7.90;2.97;;;4.10;99.90;;;;;;5015722;28;20209;-82
2023/02/14 00:06:09;;;;;;;2.63;2.20;;;4.10;99.90;;;;;;4998403;28;20181;-82
2023/02/14 00:08:36;;;;;;;2.90;1.80;;;4.10;99.90;;;;;;4998119;28;20189;-82
2023/02/14 00:11:03;;;;;;;3.50;2.43;;;4.10;99.90;;;;;;4997921;28;20191;-82
2023/02/14 00:13:28;;;;;;;2.70;2.10;;;4.20;99.90;;;;;;5015629;28;20258;-83
2023/02/14 00:15:54;;;;;;;4.87;3.17;;;4.10;99.90;;;;;;4981992;28;20631;-82
2023/02/14 00:18:20;;;;;;;2.63;2.17;;;4.10;99.90;;;;;;4998086;28;20547;-82
2023/02/14 00:20:46;;;;;;;2.83;1.80;;;4.10;99.90;;;;;;4997688;28;20196;-82
2023/02/14 00:23:11;;;;;;;5.77;2.97;;;4.10;99.90;;;;;;4997708;28;20213;-82
2023/02/14 00:25:37;;;;;;;4.23;2.60;;;4.10;99.90;;;;;;4997879;28;20191;-83
2023/02/14 00:28:03;;;;;;;11.33;4.03;;;4.10;99.90;;;;;;4998233;28;20192;-83
2023/02/14 00:30:28;;;;;;;7.10;2.47;;;4.10;99.90;;;;;;4965804;28;20236;-83
2023/02/14 00:32:54;;;;;;;4.50;2.83;;;4.10;99.90;;;;;;4997741;28;20188;-83
2023/02/14 00:35:20;;;;;;;5.37;3.07;;;4.10;99.90;;;;;;5015359;28;20549;-83
2023/02/14 00:37:46;;;;;;;7.40;3.43;;;4.10;99.90;;;;;;4997505;28;20194;-83
2023/02/14 00:40:12;;;;;;;2.63;2.27;;;4.10;99.90;;;;;;4981816;28;20189;-83
2023/02/14 00:42:38;;;;;;;2.47;2.27;;;4.10;99.90;;;;;;4997346;28;20227;-83
2023/02/14 00:45:04;;;;;;;4.00;2.10;;;4.10;99.90;;;;;;4997657;28;20273;-82
2023/02/14 00:47:30;;;;;;;4.20;2.57;;;4.10;99.90;;;;;;5014872;28;20181;-82
2023/02/14 00:50:01;;;;;;;3.33;2.27;;;4.10;99.90;;;;;;5014613;28;20673;-82
2023/02/14 00:52:28;;;;;;;3.77;2.67;;;4.10;99.90;;;;;;4966445;28;20217;-82
2023/02/14 00:54:54;;;;;;;4.63;3.17;;;4.10;99.90;;;;;;4997235;28;20185;-82
2023/02/14 00:57:20;;;;;;;7.80;2.80;;;4.10;99.90;;;;;;4997703;28;20239;-82
2023/02/14 00:59:46;;;;;;;7.00;3.27;;;4.10;99.90;;;;;;4997077;28;20547;-83
2023/02/14 01:02:12;;;;;;;8.97;2.80;;;4.10;99.90;;;;;;4997430;28;20197;-82
2023/02/14 01:04:37;;;;;;;5.17;3.33;;;4.10;99.90;;;;;;4996866;28;20208;-83
2023/02/14 01:07:03;;;;;;;4.37;2.67;;;4.10;99.90;;;;;;5015028;28;20188;-83
2023/02/14 01:09:29;;;;;;;5.13;3.00;;;4.10;99.90;;;;;;4997100;28;20235;-82
2023/02/14 01:11:54;;;;;;;2.87;2.43;;;4.10;99.90;;;;;;4996870;28;20181;-82
2023/02/14 01:14:20;;;;;;;3.00;2.23;;;4.10;99.90;;;;;;5014685;28;20173;-82
2023/02/14 01:16:46;;;;;;;3.40;2.17;;;4.10;99.90;;;;;;5014799;28;20181;-81
2023/02/14 01:19:11;;;;;;;2.30;2.10;;;4.10;99.90;;;;;;4997095;28;20177;-82
2023/02/14 01:21:37;;;;;;;4.00;2.90;;;4.00;99.90;;;;;;4996883;28;20205;-83
2023/02/14 01:24:06;;;;;;;3.77;2.40;;;4.00;99.90;;;;;;5014260;28;20268;-82
2023/02/14 01:26:32;;;;;;;5.87;3.33;;;4.00;99.90;;;;;;4996871;28;20184;-83
2023/02/14 01:28:58;;;;;;;2.70;1.60;;;4.10;99.90;;;;;;5014253;28;20182;-83
2023/02/14 01:31:30;;;;;;;3.90;3.17;;;4.00;99.90;;;;;;4980490;28;20185;-83
2023/02/14 01:33:57;;;;;;;4.03;2.80;;;4.00;99.90;;;;;;5014181;28;20169;-83
2023/02/14 01:36:32;;;;;;;7.20;4.10;;;4.10;99.90;;;;;;4996609;28;20189;-82
2023/02/14 01:39:01;;;;;;;9.93;3.87;;;4.00;99.90;;;;;;5014344;28;20645;-82
2023/02/14 01:41:29;;;;;;;5.90;3.10;;;4.10;99.90;;;;;;5014223;28;20244;-82
2023/02/14 01:44:02;;;;;;;10.40;3.87;;;4.10;99.90;;;;;;4995997;28;20205;-83
2023/02/14 01:46:39;;;;;;;4.50;2.90;;;4.10;99.90;;;;;;5013949;28;20666;-83
2023/02/14 01:49:19;;;;;;;4.80;3.47;;;4.10;99.90;;;;;;5013901;28;20161;-82
2023/02/14 01:51:55;;;;;;;4.50;3.63;;;4.00;99.90;;;;;;4996295;28;20226;-83
2023/02/14 01:54:24;;;;;;;7.03;4.30;;;4.00;99.90;;;;;;4996483;28;20527;-83
2023/02/14 01:56:56;;;;;;;3.27;2.50;;;4.00;99.90;;;;;;5013720;28;20188;-83
2023/02/14 01:59:26;;;;;;;4.57;2.57;;;4.00;99.90;;;;;;4996446;28;20316;-83
2023/02/14 02:01:52;;;;;;;3.07;2.03;;;4.00;99.90;;;;;;4996000;28;20610;-83
2023/02/14 02:04:25;;;;;;;6.73;2.90;;;4.00;99.90;;;;;;5013033;28;20221;-83
2023/02/14 02:06:58;;;;;;;5.10;3.27;;;4.00;99.90;;;;;;4995964;28;20188;-83
2023/02/14 02:09:31;;;;;;;6.10;3.23;;;4.00;99.90;;;;;;4996251;28;20292;-83
2023/02/14 02:11:57;;;;;;;8.70;3.50;;;4.00;99.90;;;;;;4996037;28;20204;-83
2023/02/14 02:14:23;;;;;;;5.67;3.10;;;4.00;99.90;;;;;;4979909;28;20600;-83
2023/02/14 02:17:07;;;;;;;5.93;3.87;;;4.00;99.90;;;;;;4995713;28;20193;-83
2023/02/14 02:20:04;;;;;;;3.83;2.67;;;4.10;99.90;;;;;;5013631;28;20174;-83
2023/02/14 02:22:50;;;;;;;7.43;3.70;;;4.00;99.90;;;;;;4995796;28;20213;-83
2023/02/14 02:25:52;;;;;;;2.97;2.40;;;4.10;99.90;;;;;;5013800;28;20716;-83
2023/02/14 02:28:30;;;;;;;8.90;4.40;;;4.10;99.90;;;;;;4995849;28;20189;-82
2023/02/14 02:31:24;;;;;;;6.43;3.00;;;4.10;99.90;;;;;;5013445;28;20630;-83
2023/02/14 02:34:08;;;;;;;6.60;2.93;;;4.00;99.90;;;;;;4982580;28;20217;-83
2023/02/14 02:37:13;;;;;;;7.07;5.30;;;4.00;99.90;;;;;;5013409;28;20227;-83
2023/02/14 02:39:57;;;;;;;8.10;3.77;;;4.00;99.90;;;;;;4995793;28;20176;-82
2023/02/14 02:42:25;;;;;;;5.17;3.23;;;4.00;99.90;;;;;;5013486;28;20220;-82
2023/02/14 02:45:16;;;;;;;15.53;3.83;;;4.10;99.90;;;;;;4996198;28;20607;-83
2023/02/14 02:47:57;;;;;;;8.33;3.83;;;4.10;99.90;;;;;;5013519;28;20158;-82
2023/02/14 02:53:40;;;;;;;5.43;4.23;;;4.00;99.90;;;;;;5013276;28;20577;-83
2023/02/14 02:59:17;;;;;;;9.80;3.43;;;4.00;99.90;;;;;;5013107;28;20687;-83
2023/02/14 03:01:48;;;;;;;5.70;3.67;;;4.00;99.90;;;;;;5013314;28;20157;-83
2023/02/14 03:07:33;;;;;;;5.00;3.53;;;4.00;99.90;;;;;;5013091;28;20227;-83
2023/02/14 03:09:52;;;;;;;7.13;4.30;;;4.00;99.90;;;;;;5012718;28;20279;-83
2023/02/14 03:12:33;;;;;;;8.97;4.57;;;5.00;99.90;;;;;;4995606;28;20654;-82
2023/02/14 03:15:13;;;;;;;5.50;3.83;;;4.00;99.90;;;;;;4996754;28;20188;-83
2023/02/14 03:17:51;;;;;;;7.27;3.83;;;4.00;99.90;;;;;;5017251;28;20173;-83
2023/02/14 03:20:40;;;;;;;6.37;4.00;;;4.00;99.90;;;;;;4999033;28;20644;-83
2023/02/14 03:23:15;;;;;;;10.80;4.67;;;3.90;99.90;;;;;;5016527;28;20728;-83
2023/02/14 03:26:08;;;;;;;3.57;3.30;;;4.00;99.90;;;;;;4999197;28;20275;-83
2023/02/14 03:28:59;;;;;;;8.17;4.63;;;4.00;99.90;;;;;;4999383;28;20597;-83
2023/02/14 03:31:30;;;;;;;6.53;4.47;;;4.00;99.90;;;;;;4998989;28;20177;-83
2023/02/14 03:34:26;;;;;;;7.73;4.30;;;4.00;99.90;;;;;;5016011;28;20185;-83
2023/02/14 03:37:10;;;;;;;7.80;4.77;;;4.00;99.90;;;;;;4998920;28;20204;-83
2023/02/14 03:39:54;;;;;;;7.27;3.47;;;3.90;99.90;;;;;;5016543;28;20161;-83
2023/02/14 03:42:41;;;;;;;7.03;4.23;;;3.90;99.90;;;;;;4998681;28;20216;-82
2023/02/14 03:45:12;;;;;;;4.63;3.57;;;3.90;99.90;;;;;;5016297;28;20207;-82
2023/02/14 03:47:41;;;;;;;10.33;4.63;;;4.00;99.90;;;;;;4998836;28;20187;-83
2023/02/14 03:50:15;;;;;;;4.70;3.20;;;3.90;99.90;;;;;;5015768;28;20216;-83
2023/02/14 03:52:43;;;;;;;6.37;4.30;;;3.90;99.90;;;;;;5016020;28;20172;-83
2023/02/14 03:55:10;;;;;;;8.17;4.43;;;3.90;99.90;;;;;;5015920;28;20173;-82
2023/02/14 03:57:46;;;;;;;6.23;3.50;;;3.90;99.90;;;;;;4998589;28;20173;-83
2023/02/14 04:00:13;;;;;;;7.67;3.87;;;3.90;99.90;;;;;;4998277;28;20271;-83
2023/02/14 04:02:45;;;;;;;3.77;3.00;;;3.90;99.90;;;;;;5016009;28;20205;-82
2023/02/14 04:05:21;;;;;;;7.43;4.33;;;3.80;99.90;;;;;;5015557;28;20245;-82
2023/02/14 04:07:51;;;;;;;6.67;3.57;;;3.90;99.90;;;;;;5015836;28;20172;-82
2023/02/14 04:10:17;;;;;;;6.37;4.17;;;3.80;99.90;;;;;;4998065;28;20180;-83
2023/02/14 04:12:43;;;;;;;8.00;4.53;;;3.80;99.90;;;;;;5015795;28;20189;-81
2023/02/14 04:15:10;;;;;;;4.10;2.73;;;3.90;99.90;;;;;;4998067;28;20200;-81
2023/02/14 04:20:21;;;;;;;6.23;3.70;;;3.90;99.90;;;;;;5000694;28;20234;-81
2023/02/14 04:22:47;;;;;;;5.03;3.13;;;3.80;99.90;;;;;;5015590;28;20721;-81
2023/02/14 04:25:13;;;;;;;5.30;3.40;;;3.80;99.90;;;;;;5015491;28;20367;-82
2023/02/14 04:27:39;;;;;;;3.60;2.50;;;3.80;99.90;;;;;;5014914;28;20222;-81
2023/02/14 04:30:06;;;;;;;4.27;3.27;;;3.80;99.90;;;;;;5015411;28;20221;-83
2023/02/14 04:32:31;;;;;;;4.80;3.70;;;3.80;99.90;;;;;;4998131;28;20188;-81
2023/02/14 04:34:57;;;;;;;6.53;3.10;;;3.80;99.90;;;;;;4981680;28;20190;-81
2023/02/14 04:37:23;;;;;;;4.37;3.03;;;3.80;99.90;;;;;;4981309;28;20208;-81
2023/02/14 04:39:48;;;;;;;8.60;3.43;;;3.80;99.90;;;;;;4981750;28;20193;-82
2023/02/14 04:42:14;;;;;;;5.13;3.03;;;3.80;99.90;;;;;;4981222;28;20189;-82
2023/02/14 04:44:40;;;;;;;10.13;4.17;;;3.80;99.90;;;;;;4997561;28;20240;-82
2023/02/14 04:47:06;;;;;;;3.63;3.13;;;3.80;99.90;;;;;;4997311;28;20189;-82
2023/02/14 04:49:33;;;;;;;10.93;3.67;;;3.80;99.90;;;;;;5015139;28;20177;-82
2023/02/14 04:51:58;;;;;;;2.83;2.63;;;3.80;99.90;;;;;;5015118;28;20177;-81
2023/02/14 04:54:24;;;;;;;5.77;4.37;;;3.80;99.90;;;;;;4981230;28;20181;-82
2023/02/14 04:56:50;;;;;;;7.70;4.07;;;3.80;99.90;;;;;;5014686;28;20208;-82
2023/02/14 04:59:16;;;;;;;6.97;4.03;;;3.80;99.90;;;;;;4997299;28;20268;-82
2023/02/14 05:01:41;;;;;;;9.07;3.80;;;3.70;99.90;;;;;;5014351;28;20185;-82
2023/02/14 05:04:08;;;;;;;7.07;5.30;;;3.70;99.90;;;;;;4980672;28;20217;-82
2023/02/14 05:06:33;;;;;;;4.43;3.00;;;3.80;99.90;;;;;;4996926;28;20177;-82
2023/02/14 05:08:59;;;;;;;15.60;3.90;;;3.80;99.90;;;;;;4980631;28;20280;-82
2023/02/14 05:11:26;;;;;;;6.33;3.37;;;3.80;99.90;;;;;;4996336;28;20188;-82
2023/02/14 05:13:52;;;;;;;5.07;4.23;;;3.80;99.90;;;;;;4996825;28;20185;-82
2023/02/14 05:16:17;;;;;;;7.57;3.97;;;3.80;99.90;;;;;;5013960;28;20311;-83
2023/02/14 05:18:43;;;;;;;4.73;3.60;;;3.80;99.90;;;;;;5014161;28;20550;-83
2023/02/14 05:21:10;;;;;;;6.50;4.20;;;3.70;99.90;;;;;;4995985;28;20288;-82
2023/02/14 05:23:35;;;;;;;9.40;4.13;;;3.80;99.90;;;;;;4995958;28;20248;-82
2023/02/14 05:26:01;;;;;;;12.30;5.83;;;3.70;99.90;;;;;;5014047;28;20562;-82
2023/02/14 05:28:27;;;;;;;8.80;5.10;;;3.70;99.90;;;;;;5013603;28;20218;-83
2023/02/14 05:30:53;;;;;;;11.37;5.17;;;3.70;99.90;;;;;;5009207;28;20185;-82
2023/02/14 05:33:18;;;;;;;10.27;3.90;;;3.30;99.90;;;;;;4996336;28;20181;-83
2023/02/14 05:35:44;;;;;;;8.97;3.10;;;3.70;99.90;;;;;;5025569;28;20662;-83
2023/02/14 05:38:11;;;;;;;6.47;3.60;;;3.70;99.90;;;;;;4966902;28;20597;-83
2023/02/14 05:40:38;;;;;;;3.83;2.90;;;3.70;99.90;;;;;;5014205;28;20181;-83
2023/02/14 05:43:03;;;;;;;6.50;3.30;;;3.60;99.90;;;;;;4996558;28;20213;-84
2023/02/14 05:45:39;;;;;;;6.83;4.33;;;3.60;99.90;;;;;;4964029;28;20713;-82
2023/02/14 05:48:05;;;;;;;7.00;3.73;;;3.60;99.90;;;;;;5013889;28;20169;-84
2023/02/14 05:50:30;;;;;;;7.97;5.50;;;3.60;99.90;;;;;;4996160;28;20726;-83
2023/02/14 05:52:56;;;;;;;10.63;4.50;;;3.60;99.90;;;;;;4996385;28;20279;-83
2023/02/14 05:55:22;;;;;;;12.50;4.77;;;3.60;99.90;;;;;;4996234;28;20185;-83
2023/02/14 05:57:47;;;;;;;7.53;4.50;;;3.60;99.90;;;;;;4996258;28;20680;-84
2023/02/14 06:00:14;;;;;;;11.10;3.73;;;3.60;99.90;;;;;;4979762;28;20192;-83
2023/02/14 06:02:40;;;;;;;6.23;4.37;;;3.50;99.90;;;;;;5014047;28;20749;-83
2023/02/14 06:05:06;;;;;;;9.37;5.30;;;3.50;99.90;;;;;;4980276;28;20268;-83
2023/02/14 06:07:31;;;;;;;8.93;4.53;;;3.50;99.90;;;;;;5013792;28;20177;-83
2023/02/14 06:09:57;;;;;;;7.20;4.60;;;3.50;99.90;;;;;;4979728;28;20197;-83
2023/02/14 06:12:23;;;;;;;8.50;4.67;;;3.60;99.90;;;;;;5001794;28;20201;-82
2023/02/14 06:14:49;;;;;;;4.33;2.63;;;3.60;99.90;;;;;;5018567;28;20237;-83
2023/02/14 06:17:14;;;;;;;8.87;4.70;;;3.60;99.90;;;;;;5011816;28;20217;-83
2023/02/14 06:19:41;;;;;;;5.83;3.23;;;3.60;99.90;;;;;;4993052;28;20189;-82
2023/02/14 06:22:07;;;;;;;5.77;3.60;;;3.50;99.90;;;;;;4977980;28;20204;-83
2023/02/14 06:24:32;;;;;;;7.30;4.60;;;3.50;99.90;;;;;;5021803;28;20240;-83
2023/02/14 06:26:59;;;;;;;9.03;4.83;;;3.50;99.90;;;;;;5010278;28;20192;-82
2023/02/14 06:29:25;;;;;;;4.03;2.90;;;;;;;;;;5011790;28;20179;-83
2023/02/14 06:31:50;;;;;;;5.83;3.57;;;3.50;99.90;;;;;;5014158;28;20226;-83
2023/02/14 06:34:16;;;;;;;8.43;3.20;;;3.50;99.90;;;;;;4996838;28;20632;-83
2023/02/14 06:36:42;;;;;;;5.77;3.60;;;3.50;99.90;;;;;;5004891;28;20593;-83
2023/02/14 06:39:07;;;;;;;9.03;4.80;;;3.60;99.90;;;;;;5012215;28;20545;-83
2023/02/14 06:41:33;;;;;;;12.50;4.13;;;3.60;99.90;;;;;;5012369;28;20199;-83
2023/02/14 06:43:59;;;;;;;4.93;3.13;;;3.60;99.90;;;;;;5017830;28;20215;-82
2023/02/14 06:46:24;;;;;;;6.27;3.70;;;3.60;99.90;;;;;;5023686;28;20590;-83
2023/02/14 06:48:50;;;;;;;6.70;3.73;;;3.60;99.90;;;;;;4986856;28;20550;-82
2023/02/14 06:51:16;;;;;;;9.53;3.73;;;3.60;99.90;;;;;;4999561;28;20744;-82
2023/02/14 06:53:42;;;;;;;5.47;3.10;;;3.60;99.90;;;;;;5015837;28;20645;-84
2023/02/14 06:56:08;;;;;;;6.00;4.00;;;3.60;99.90;;;;;;5015877;28;20189;-82
2023/02/14 06:58:34;;;;;;;5.97;3.53;;;3.70;99.90;;;;;;5025398;28;20275;-84
2023/02/14 07:01:00;;;;;;;8.17;4.40;;;3.60;99.90;;;;;;5034539;28;20216;-83
2023/02/14 07:03:27;;;;;;;7.60;4.17;;;3.70;99.90;;;;;;5021492;28;20221;-84
2023/02/14 07:05:54;;;;;;;9.67;5.03;;;3.60;99.90;;;;;;4998170;28;20184;-84
2023/02/14 07:08:20;;;;;;;8.00;4.43;;;3.70;99.90;;;;;;5016914;28;20177;-83
2023/02/14 07:10:46;;;;;;;4.97;3.17;;;3.60;99.90;;;;;;4990256;28;20280;-83
2023/02/14 07:13:12;;;;;;;12.33;4.97;;;3.60;99.90;;;;;;4983112;28;20236;-84
2023/02/14 07:15:37;;;;;;;7.27;3.93;;;3.70;99.90;;;;;;5015844;28;20192;-86
2023/02/14 07:18:03;;;;;;;8.07;3.87;;;3.70;99.90;;;;;;4999838;28;20276;-83
2023/02/14 07:20:29;;;;;;;12.83;4.13;;;3.70;99.90;;;;;;5023358;28;20250;-84
2023/02/14 07:22:55;;;;;;;10.07;5.43;;;3.60;99.90;;;;;;5025718;28;20212;-83
2023/02/14 07:25:21;;;;;;;6.10;4.37;;;3.60;99.90;;;;;;5033471;28;20236;-84
2023/02/14 07:27:47;;;;;;;10.63;5.30;;;3.60;99.90;;;;;;5023410;28;20200;-83
2023/02/14 07:30:13;;;;;;;4.70;3.97;;;3.60;99.90;;;;;;5021495;28;20646;-84
2023/02/14 07:32:39;;;;;;;11.20;5.00;;;3.70;99.90;;;;;;5011231;28;20189;-83
2023/02/14 07:35:06;;;;;;;4.43;3.77;;;3.70;99.90;;;;;;5015818;28;20185;-84
2023/02/14 07:37:32;;;;;;;6.57;4.23;;;3.70;99.90;;;;;;5016920;28;20224;-82
2023/02/14 07:39:58;;;;;;;9.73;6.20;;;3.70;99.90;;;;;;5014103;28;20189;-82
2023/02/14 07:42:24;;;;;;;9.10;4.80;;;3.70;99.90;;;;;;4996052;28;20668;-84
2023/02/14 07:44:50;;;;;;;5.17;4.00;;;3.70;99.90;;;;;;5003838;28;20195;-83
2023/02/14 07:47:15;;;;;;;5.33;3.83;;;3.70;99.90;;;;;;5017557;28;20728;-83
2023/02/14 07:49:41;;;;;;;7.20;3.90;;;3.70;99.90;;;;;;5034682;28;20189;-83
2023/02/14 07:52:07;;;;;;;6.03;4.10;;;3.70;99.90;;;;;;4990377;28;20177;-83
2023/02/14 07:54:33;;;;;;;10.17;6.10;;;3.70;99.90;;;;;;5007718;28;20644;-82
2023/02/14 07:57:00;;;;;;;6.03;3.67;;;3.70;99.90;;;;;;5000657;28;20231;-82
2023/02/14 07:59:26;;;;;;;14.10;6.40;;;3.80;99.90;;;;;;5025579;28;20205;-84
2023/02/14 08:01:51;;;;;;;10.47;4.60;;;3.80;99.90;;;;;;5008647;28;20180;-84
2023/02/14 08:04:17;;;;;;;10.23;6.10;;;3.80;99.90;;;;;;4992336;28;20208;-82
2023/02/14 08:06:43;;;;;;;10.23;6.50;;;3.80;99.90;;;;;;5028150;28;20526;-83
2023/02/14 08:09:09;;;;;;;8.17;4.50;;;3.80;99.90;;;;;;5026237;28;20247;-83
2023/02/14 08:14:20;;;;;;;8.60;3.97;;;3.90;99.90;;;;;;5018833;28;20315;-83
2023/02/14 08:16:45;;;;;;;5.07;3.67;;;3.90;99.90;;;;;;5010928;28;20199;-83
2023/02/14 08:19:11;;;;;;;7.00;3.90;;;3.90;99.90;;;;;;4988707;28;20216;-85
2023/02/14 08:21:37;;;;;;;5.07;3.90;;;3.90;99.90;;;;;;4978142;28;20737;-84
2023/02/14 08:24:02;;;;;;;7.57;4.67;;;3.80;99.90;;;;;;4979606;28;20780;-82
2023/02/14 08:26:28;;;;;;;7.93;4.03;;;3.70;99.90;;;;;;4996505;28;20189;-83
2023/02/14 08:28:54;;;;;;;7.17;4.33;;;3.70;99.90;;;;;;4990548;28;20272;-83
2023/02/14 08:31:29;;;;;;;9.07;4.67;;;3.80;99.90;;;;;;5019573;28;20638;-82
2023/02/14 08:33:55;;;;;;;9.60;2.93;;;4.00;99.90;;;;;;5021653;28;20224;-83
2023/02/14 08:36:21;;;;;;;6.33;4.13;;;3.90;99.90;;;;;;4998577;28;20187;-82
2023/02/14 08:38:47;;;;;;;7.30;4.10;;;3.80;99.90;;;;;;5032904;28;20184;-83
2023/02/14 08:41:15;;;;;;;9.90;3.27;;;3.80;99.90;;;;;;5015451;28;20213;-85
2023/02/14 08:43:41;;;;;;;6.30;4.00;;;3.80;99.90;;;;;;5033628;28;20257;-83
2023/02/14 08:46:06;;;;;;;7.57;3.20;;;3.90;99.90;;;;;;5015454;28;20196;-83
2023/02/14 08:48:34;;;;;;;5.33;3.77;;;3.90;99.90;;;;;;5015626;28;20280;-85
2023/02/14 08:51:05;;;;;;;12.30;5.53;;;4.00;99.90;;;;;;5016144;28;20176;-82
2023/02/14 08:53:30;;;;;;;10.60;4.77;;;4.10;99.90;;;;;;5035062;28;20303;-82
2023/02/14 08:56:04;;;;;;;12.00;6.13;;;4.00;99.90;;;;;;5034684;28;20271;-82
2023/02/14 08:58:31;;;;;;;6.03;4.10;;;4.00;99.90;;;;;;5034929;28;20176;-83
2023/02/14 09:00:57;;;;;;;8.57;4.33;;;4.00;99.90;;;;;;5034672;28;20537;-83
2023/02/14 09:03:23;;;;;;;12.87;5.73;;;4.00;99.90;;;;;;5017166;28;20219;-82
2023/02/14 09:05:48;;;;;;;5.70;3.73;;;4.10;99.90;;;;;;5034473;28;20537;-83
2023/02/14 09:08:14;;;;;;;7.27;4.20;;;4.20;99.90;;;;;;5034228;28;20268;-83
2023/02/14 09:10:40;;;;;;;13.03;5.83;;;4.20;99.90;;;;;;5000314;28;20184;-83
2023/02/14 09:13:06;;;;;;;11.80;4.67;;;4.20;99.90;;;;;;5016445;28;20595;-82
2023/02/14 09:15:31;;;;;;;10.97;5.67;;;4.30;99.90;;;;;;5016693;28;20185;-83
2023/02/14 09:17:57;;;;;;;8.13;5.27;;;4.30;99.90;;;;;;5015976;28;20267;-85
2023/02/14 09:20:23;;;;;;;8.57;4.60;;;4.40;99.90;;;;;;5000398;28;20185;-84
2023/02/14 09:22:49;;;;;;;9.97;3.70;;;4.30;99.90;;;;;;5016365;28;20212;-85
2023/02/14 09:25:15;;;;;;;9.50;4.07;;;4.30;99.90;;;;;;5000145;28;20319;-83
2023/02/14 09:27:41;;;;;;;6.57;3.83;;;4.30;99.90;;;;;;5016209;28;20190;-84
2023/02/14 09:30:09;;;;;;;10.43;5.93;;;4.30;99.90;;;;;;5000126;28;20310;-84
2023/02/14 09:32:34;;;;;;;6.57;4.27;;;4.40;99.90;;;;;;5034008;28;20180;-82
2023/02/14 09:35:00;;;;;;;9.50;4.40;;;4.30;99.90;;;;;;5033633;28;20701;-84
2023/02/14 09:40:17;;;;;;;11.53;5.07;;;4.30;99.90;;;;;;5034067;28;20231;-84
2023/02/14 09:42:58;;;;;;;11.17;5.93;;;4.30;99.90;;;;;;5033373;28;20625;-83
2023/02/14 09:45:26;;;;;;;9.87;5.57;;;4.30;99.90;;;;;;5034139;28;20200;-85
2023/02/14 09:47:54;;;;;;;10.07;5.60;;;4.30;99.90;;;;;;5015960;28;20208;-83
2023/02/14 09:50:26;;;;;;;6.90;4.83;;;4.30;99.90;;;;;;5033961;28;20180;-83
2023/02/14 09:52:56;;;;;;;4.47;3.80;;;4.30;99.90;;;;;;5015837;28;20180;-83
2023/02/14 09:55:28;;;;;;;9.60;5.30;;;4.30;99.90;;;;;;5033960;28;20169;-83
2023/02/14 09:58:18;;;;;;;8.03;4.50;;;4.20;99.90;;;;;;5033599;28;20222;-82
2023/02/14 10:01:32;;;;;;;11.17;5.57;;;4.30;99.90;;;;;;5016234;28;20184;-82
2023/02/14 10:03:57;;;;;;;4.73;3.40;;;4.30;99.90;;;;;;4989039;28;20270;-82
2023/02/14 10:06:49;;;;;;;13.40;5.87;;;4.40;99.90;;;;;;5015886;28;20212;-81
2023/02/14 10:09:24;;;;;;;7.17;4.17;;;4.40;99.90;;;;;;5033966;28;20318;-82
2023/02/14 10:11:49;;;;;;;5.33;3.23;;;4.40;99.90;;;;;;5033288;28;20187;-82
2023/02/14 10:14:24;;;;;;;8.93;5.07;;;4.40;99.90;;;;;;5015541;28;20181;-82
2023/02/14 10:16:53;;;;;;;8.70;4.63;;;4.40;99.90;;;;;;5033358;28;20633;-83
2023/02/14 10:19:25;;;;;;;7.27;4.90;;;4.40;99.90;;;;;;5033403;28;20180;-83
2023/02/14 10:21:59;;;;;;;11.00;5.00;;;4.40;99.90;;;;;;5015552;28;20247;-83
2023/02/14 10:24:38;;;;;;;8.20;4.37;;;4.50;99.90;;;;;;5014613;28;20243;-83
2023/02/14 10:27:17;;;;;;;6.67;3.93;;;4.60;99.90;;;;;;5033401;28;20176;-81
2023/02/14 10:29:43;;;;;;;5.80;3.40;;;4.60;99.90;;;;;;5015652;28;20291;-81
2023/02/14 10:32:23;;;;;;;9.93;4.80;;;4.70;99.90;;;;;;4998917;28;20204;-82
2023/02/14 10:34:53;;;;;;;15.03;7.40;;;4.70;99.90;;;;;;5033398;28;20161;-81
2023/02/14 10:37:31;;;;;;;7.87;5.50;;;4.70;99.90;;;;;;5033344;28;20189;-81
2023/02/14 10:40:20;;;;;;;9.77;5.00;;;4.60;99.90;;;;;;5015267;28;20186;-84
2023/02/14 10:42:57;;;;;;;11.27;6.07;;;4.60;99.90;;;;;;5015687;28;20401;-83
2023/02/14 10:45:57;;;;;;;7.70;5.63;;;4.60;99.90;;;;;;5015925;28;20180;-83
2023/02/14 10:49:08;;;;;;;8.27;4.40;;;4.70;99.90;;;;;;5033253;28;20192;-84
2023/02/14 10:52:13;;;;;;;10.67;6.73;;;4.60;99.90;;;;;;4930167;28;20192;-82
2023/02/14 10:54:41;;;;;;;10.67;5.43;;;4.60;99.90;;;;;;5015129;28;20188;-83
2023/02/14 10:57:10;;;;;;;13.97;6.23;;;4.60;99.90;;;;;;5014928;28;20238;-83
2023/02/14 11:00:07;;;;;;;7.63;5.10;;;4.70;99.90;;;;;;5033000;28;20176;-82
2023/02/14 11:02:41;;;;;;;19.47;8.47;;;4.80;99.90;;;;;;5015423;28;20195;-83
2023/02/14 11:05:42;;;;;;;11.17;6.13;;;4.70;99.90;;;;;;5032607;28;20178;-83
2023/02/14 11:08:25;;;;;;;15.27;7.03;;;4.80;99.90;;;;;;5032757;28;20188;-81
2023/02/14 11:10:58;;;;;;;15.80;8.00;;;4.80;99.90;;;;;;5015222;28;20184;-81
2023/02/14 11:13:38;;;;;;;11.80;6.80;;;4.90;99.90;;;;;;5015230;28;20188;-83
2023/02/14 11:16:17;;;;;;;12.93;6.70;;;4.90;99.90;;;;;;5032644;28;20175;-82
2023/02/14 11:18:43;;;;;;;6.03;3.67;;;4.90;99.90;;;;;;5015181;28;20222;-83
2023/02/14 11:21:16;;;;;;;17.63;8.33;;;5.00;99.90;;;;;;5014907;28;20209;-83
2023/02/14 11:23:46;;;;;;;10.67;5.23;;;4.90;99.90;;;;;;5015037;28;20236;-82
2023/02/14 11:26:29;;;;;;;10.37;4.90;;;4.80;99.90;;;;;;5032327;28;20184;-82
2023/02/14 11:29:02;;;;;;;12.00;6.20;;;4.80;99.90;;;;;;5015125;28;20537;-82
2023/02/14 11:31:36;;;;;;;12.20;6.07;;;4.80;99.90;;;;;;5014924;28;20184;-80
2023/02/14 11:34:05;;;;;;;11.13;5.97;;;4.90;99.90;;;;;;5014915;28;20664;-82
2023/02/14 11:36:32;;;;;;;12.70;6.20;;;4.90;99.90;;;;;;5034870;28;20621;-82
2023/02/14 11:39:06;;;;;;;13.40;8.60;;;4.80;99.90;;;;;;5018702;28;20185;-82
2023/02/14 11:41:48;;;;;;;8.70;4.93;;;4.80;99.90;;;;;;5039732;28;20222;-83
2023/02/14 11:44:21;;;;;;;16.97;7.30;;;4.90;99.90;;;;;;5051952;28;20614;-84
2023/02/14 11:46:48;;;;;;;15.00;7.50;;;4.90;99.90;;;;;;5058318;28;20264;-82
2023/02/14 11:49:27;;;;;;;8.00;4.47;;;4.80;99.90;;;;;;5024686;28;20180;-83
2023/02/14 11:51:54;;;;;;;14.50;6.37;;;4.90;99.90;;;;;;5042903;28;20160;-83
2023/02/14 11:54:39;;;;;;;18.77;8.43;;;5.00;99.90;;;;;;5060509;28;20180;-83
2023/02/14 11:57:14;;;;;;;10.80;5.67;;;4.90;99.90;;;;;;5029756;28;20176;-83
2023/02/14 11:59:47;;;;;;;8.80;4.23;;;5.00;99.90;;;;;;5019325;28;20675;-83
2023/02/14 12:02:27;;;;;;;10.47;4.77;;;5.10;99.90;;;;;;5019037;28;20176;-83
2023/02/14 12:05:25;;;;;;;8.50;5.33;;;5.00;99.90;;;;;;5036484;28;20200;-85
2023/02/14 12:07:54;;;;;;;10.57;4.97;;;5.00;99.90;;;;;;5035632;28;20728;-84
2023/02/14 12:10:22;;;;;;;16.13;6.43;;;4.90;99.90;;;;;;5017792;28;20177;-85
2023/02/14 12:12:54;;;;;;;10.47;5.93;;;5.00;99.90;;;;;;5035028;28;20238;-83
2023/02/14 12:15:41;;;;;;;8.47;5.73;;;4.90;99.90;;;;;;5035269;28;20169;-82
2023/02/14 12:18:23;;;;;;;11.83;6.20;;;4.90;99.90;;;;;;5017662;28;20192;-83
2023/02/14 12:21:12;;;;;;;7.27;4.67;;;5.00;99.90;;;;;;5035934;28;20386;-82
2023/02/14 12:23:50;;;;;;;11.43;5.30;;;5.00;99.90;;;;;;5035383;28;20243;-84
2023/02/14 12:26:33;;;;;;;14.80;6.53;;;5.00;99.90;;;;;;5035676;28;20168;-82
2023/02/14 12:29:12;;;;;;;11.77;7.03;;;5.00;99.90;;;;;;5038067;28;20172;-82
2023/02/14 12:31:37;;;;;;;14.03;5.73;;;4.90;99.90;;;;;;5035572;28;20255;-82
2023/02/14 12:34:03;;;;;;;14.37;7.87;;;4.90;99.90;;;;;;5001119;28;20665;-82
2023/02/14 12:36:44;;;;;;;11.53;6.00;;;4.90;99.90;;;;;;5017042;28;20184;-83
2023/02/14 12:39:35;;;;;;;9.03;5.50;;;4.90;99.90;;;;;;5035248;28;20172;-83
2023/02/14 12:42:33;;;;;;;7.17;4.57;;;4.80;99.90;;;;;;5017561;28;20188;-83
2023/02/14 12:45:20;;;;;;;9.30;5.00;;;4.80;99.90;;;;;;5034974;28;20596;-83
2023/02/14 12:48:14;;;;;;;12.10;5.90;;;4.80;99.90;;;;;;5034691;28;20161;-84
2023/02/14 12:50:55;;;;;;;11.90;6.03;;;4.70;99.90;;;;;;4998401;28;20267;-84
2023/02/14 12:53:27;;;;;;;13.10;6.87;;;4.70;99.90;;;;;;5034872;28;20168;-85
2023/02/14 12:55:58;;;;;;;13.83;7.07;;;4.70;99.90;;;;;;5035064;28;20172;-84
2023/02/14 12:58:23;;;;;;;13.37;7.10;;;4.60;99.90;;;;;;5034835;28;20226;-84
2023/02/14 13:01:21;;;;;;;20.20;8.97;;;4.60;99.90;;;;;;5034782;28;20177;-83
2023/02/14 13:04:12;;;;;;;11.93;6.57;;;4.60;99.90;;;;;;5017092;28;20219;-84
2023/02/14 13:06:45;;;;;;;8.43;3.73;;;4.50;99.90;;;;;;5034621;28;20299;-83
2023/02/14 13:09:25;;;;;;;7.27;4.83;;;4.50;99.90;;;;;;5034470;28;20622;-84
2023/02/14 13:12:21;;;;;;;7.87;5.33;;;4.60;99.90;;;;;;5034712;28;20298;-84
2023/02/14 13:14:59;;;;;;;8.13;4.13;;;4.60;99.90;;;;;;5034704;28;20169;-84
2023/02/14 13:17:51;;;;;;;10.57;6.87;;;4.60;99.90;;;;;;5018322;28;20179;-83
2023/02/14 13:20:37;;;;;;;9.50;4.87;;;4.60;99.90;;;;;;5039733;28;20195;-82
2023/02/14 13:23:33;;;;;;;10.13;5.03;;;4.60;99.90;;;;;;5026637;28;20550;-83
2023/02/14 13:26:25;;;;;;;11.67;6.57;;;4.60;99.90;;;;;;4998187;28;20204;-84
2023/02/14 13:28:57;;;;;;;12.57;5.17;;;4.60;99.90;;;;;;5024616;28;20173;-83
2023/02/14 13:31:22;;;;;;;8.90;4.77;;;4.60;99.90;;;;;;5003719;28;20173;-84
2023/02/14 13:34:20;;;;;;;11.47;5.37;;;4.70;99.90;;;;;;5005664;28;20533;-83
2023/02/14 13:36:47;;;;;;;10.67;5.60;;;4.60;99.90;;;;;;5000942;28;20186;-83